Time;durP1;ratioP1;P1;durP2;ratioP2;P2;SDS_P1;SDS_P2;PMS_P1;PMS_P2;Temp;Humidity;BMP_temperature;BMP_pressure;BME280_temperature;BME280_humidity;BME280_pressure;Samples;Min_cycle;Max_cycle;Signal;HPM_P1;HPM_P2
2021/11/30 00:01:46;;;;;;;1999.90;925.30;;;;;;;5.29;60.19;99205.69;5033640;28;20036;-50
2021/11/30 00:04:14;;;;;;;735.22;571.25;;;;;;;5.03;60.86;99210.03;5033567;28;20057;-49
2021/11/30 00:06:40;;;;;;;93.05;70.85;;;;;;;4.77;61.33;99211.63;5051495;28;20055;-49
2021/11/30 00:12:01;;;;;;;48.92;37.42;;;;;;;4.15;62.56;99215.91;5051480;28;20033;-50
2021/11/30 00:14:28;;;;;;;21.88;12.20;;;;;;;3.91;62.70;99214.66;5051438;28;20028;-50
2021/11/30 00:16:57;;;;;;;13.45;9.55;;;;;;;3.74;62.79;99220.59;5051428;28;20096;-50
2021/11/30 00:19:23;;;;;;;11.23;7.47;;;;;;;3.42;63.32;99227.03;5051340;28;20025;-50
2021/11/30 00:21:49;;;;;;;9.30;6.95;;;;;;;3.24;64.37;99226.94;5051900;28;20086;-49
2021/11/30 00:24:15;;;;;;;10.60;7.55;;;;;;;3.11;64.59;99224.63;5051359;28;20021;-51
2021/11/30 00:26:40;;;;;;;9.85;7.20;;;;;;;2.99;65.21;99229.13;5051353;28;20021;-48
2021/11/30 00:29:06;;;;;;;17.10;9.68;;;;;;;3.05;65.28;99221.78;5051274;28;20159;-47
2021/11/30 00:31:32;;;;;;;15.80;10.40;;;;;;;2.96;65.00;99231.22;5051287;28;20063;-47
2021/11/30 00:34:03;;;;;;;19.10;10.90;;;;;;;2.82;65.49;99237.63;5051075;28;20047;-47
2021/11/30 00:36:29;;;;;;;15.10;10.95;;;;;;;2.80;66.47;99247.31;5051193;28;20022;-47
2021/11/30 00:38:55;;;;;;;14.77;9.57;;;;;;;2.72;65.76;99242.81;5051276;28;20021;-48
2021/11/30 00:41:21;;;;;;;16.08;12.23;;;;;;;2.50;66.50;99240.47;5051107;28;20029;-48
2021/11/30 00:43:48;;;;;;;15.18;10.10;;;;;;;2.33;67.04;99239.34;5051183;28;20491;-48
2021/11/30 00:46:18;;;;;;;14.13;10.63;;;;;;;2.25;67.37;99241.78;5051107;28;20029;-48
2021/11/30 00:48:44;;;;;;;16.92;10.20;;;;;;;2.27;68.29;99243.28;5035937;28;20032;-48
2021/11/30 00:51:18;;;;;;;19.60;10.95;;;;;;;2.31;67.67;99249.81;5054753;28;20032;-48
2021/11/30 00:53:48;;;;;;;18.73;12.30;;;;;;;2.17;67.94;99250.22;5054892;28;20033;-48
2021/11/30 00:56:15;;;;;;;14.15;10.43;;;;;;;2.08;68.12;99246.66;5054776;28;20554;-48
2021/11/30 00:58:42;;;;;;;15.70;11.45;;;;;;;1.92;68.52;99249.72;5054715;28;20044;-48
2021/11/30 01:01:07;;;;;;;15.45;10.68;;;;;;;1.80;68.81;99251.59;5054540;28;20044;-47
2021/11/30 01:03:33;;;;;;;14.80;10.68;;;;;;;1.73;69.40;99247.91;5054648;28;20511;-48
2021/11/30 01:05:59;;;;;;;15.82;11.50;;;;;;;1.67;69.27;99247.56;5054573;28;20031;-48
2021/11/30 01:08:25;;;;;;;16.20;11.18;;;;;;;1.60;69.72;99249.88;5036614;28;20025;-47
2021/11/30 01:10:51;;;;;;;15.77;10.88;;;;;;;1.52;69.78;99249.69;5054424;28;20556;-48
2021/11/30 01:13:18;;;;;;;17.95;9.63;;;;;;;1.51;70.00;99250.63;5036513;28;20492;-48
2021/11/30 01:15:45;;;;;;;14.38;9.13;;;;;;;1.47;70.31;99247.50;5036446;28;20025;-48
2021/11/30 01:21:15;;;;;;;19.00;9.98;;;;;;;1.47;70.45;99249.25;5054223;28;20122;-48
2021/11/30 01:23:40;;;;;;;14.50;9.73;;;;;;;1.46;71.02;99253.59;5036374;28;20033;-48
2021/11/30 01:26:06;;;;;;;20.75;9.60;;;;;;;1.52;70.75;99254.88;5036299;28;20516;-49
2021/11/30 01:28:32;;;;;;;11.68;9.57;;;;;;;1.54;70.56;99266.72;5036284;28;20025;-49
2021/11/30 01:30:58;;;;;;;18.42;10.07;;;;;;;1.53;70.92;99272.00;5036113;28;20048;-49
2021/11/30 01:33:24;;;;;;;15.40;10.90;;;;;;;1.55;70.95;99270.13;5024767;28;20045;-48
2021/11/30 01:35:50;;;;;;;17.35;10.65;;;;;;;1.58;70.90;99277.63;5034053;28;20550;-48
2021/11/30 01:38:16;;;;;;;18.10;8.98;;;;;;;1.75;71.29;99284.81;5016273;28;20125;-49
2021/11/30 01:40:43;;;;;;;22.70;16.40;;;;;;;1.85;70.96;99284.03;5016179;28;20025;-47
2021/11/30 01:43:14;;;;;;;14.35;10.70;;;;;;;1.90;70.02;99287.88;5016119;28;20412;-48
2021/11/30 01:50:35;;;;;;;17.58;11.70;;;;;;;1.62;70.10;99301.50;5016157;28;20029;-49
2021/11/30 01:53:02;;;;;;;15.07;11.13;;;;;;;1.42;70.36;99306.53;5015940;28;20037;-48
2021/11/30 01:55:31;;;;;;;18.85;11.38;;;;;;;1.33;70.67;99305.53;5015936;28;20121;-47
2021/11/30 01:57:58;;;;;;;15.10;10.32;;;;;;;1.39;70.61;99310.19;5033664;28;20025;-47
2021/11/30 02:00:24;;;;;;;19.85;11.43;;;;;;;1.45;71.00;99316.63;5014932;28;20053;-48
2021/11/30 02:02:50;;;;;;;14.43;10.63;;;;;;;1.45;70.24;99327.00;5015828;28;20036;-50
2021/11/30 02:05:16;;;;;;;12.70;10.05;;;;;;;1.36;70.20;99318.19;5033468;28;20025;-49
2021/11/30 02:07:43;;;;;;;24.98;10.60;;;;;;;1.32;70.29;99324.56;5015746;28;20120;-48
2021/11/30 02:10:11;;;;;;;16.73;11.50;;;;;;;1.24;70.74;99326.97;5015598;28;20045;-48
2021/11/30 02:12:39;;;;;;;20.17;12.10;;;;;;;1.08;70.98;99337.72;5015566;28;20445;-48
2021/11/30 02:15:08;;;;;;;18.63;13.82;;;;;;;0.99;71.55;99335.88;5015488;28;20036;-51
2021/11/30 02:17:34;;;;;;;17.25;11.38;;;;;;;1.10;71.29;99329.84;5015518;28;20046;-48
2021/11/30 02:20:04;;;;;;;21.42;12.02;;;;;;;1.07;71.18;99333.50;5033211;28;20116;-47
2021/11/30 02:22:30;;;;;;;17.77;11.57;;;;;;;1.10;71.37;99332.44;5033155;28;20040;-48
2021/11/30 02:24:56;;;;;;;13.55;9.32;;;;;;;1.15;71.32;99338.06;5015391;28;20033;-49
2021/11/30 02:27:22;;;;;;;21.98;11.55;;;;;;;1.11;71.24;99336.66;5015336;28;20029;-49
2021/11/30 02:29:48;;;;;;;14.07;10.60;;;;;;;1.15;71.28;99335.47;5015351;28;20116;-48
2021/11/30 02:32:14;;;;;;;18.42;12.48;;;;;;;1.20;71.06;99338.50;5016436;28;20092;-48
2021/11/30 02:34:40;;;;;;;20.70;15.35;;;;;;;1.22;70.78;99341.78;5034987;28;20025;-48
2021/11/30 02:37:09;;;;;;;12.23;9.68;;;;;;;1.27;70.98;99341.41;5034929;28;20025;-48
2021/11/30 02:39:37;;;;;;;18.67;9.75;;;;;;;1.13;70.40;99351.09;5051395;28;20403;-48
2021/11/30 02:42:05;;;;;;;12.48;9.38;;;;;;;0.98;70.88;99342.78;5052769;28;20021;-48
2021/11/30 02:44:32;;;;;;;15.40;11.73;;;;;;;0.88;70.98;99354.00;5034758;28;20021;-48
2021/11/30 02:47:07;;;;;;;21.77;13.07;;;;;;;0.81;71.27;99358.03;5052692;28;20376;-48
2021/11/30 02:49:37;;;;;;;21.30;13.35;;;;;;;0.81;71.74;99358.84;5052786;28;20387;-47
2021/11/30 02:52:08;;;;;;;21.63;14.98;;;;;;;0.72;71.77;99351.81;5052616;28;20106;-47
2021/11/30 02:54:43;;;;;;;16.48;12.35;;;;;;;0.61;71.99;99362.19;5052666;28;20127;-48
2021/11/30 02:57:12;;;;;;;17.33;12.05;;;;;;;0.63;71.88;99370.63;5030868;28;20039;-47
2021/11/30 02:59:44;;;;;;;17.63;11.95;;;;;;;0.76;71.81;99369.50;5052403;28;20021;-51
2021/11/30 03:02:18;;;;;;;17.27;13.95;;;;;;;0.86;71.90;99367.03;5034474;28;20029;-49
2021/11/30 03:04:46;;;;;;;15.95;11.10;;;;;;;0.87;71.96;99371.28;5034432;28;20021;-48
2021/11/30 03:07:16;;;;;;;14.05;11.10;;;;;;;0.77;71.17;99373.75;5034363;28;20025;-48
2021/11/30 03:09:42;;;;;;;18.73;12.82;;;;;;;0.62;72.13;99379.28;5034334;28;20025;-49
2021/11/30 03:12:09;;;;;;;17.63;12.27;;;;;;;0.38;72.08;99368.19;5034291;28;20029;-50
2021/11/30 03:14:35;;;;;;;17.20;13.93;;;;;;;0.15;72.73;99367.34;5034306;28;20021;-48
2021/11/30 03:17:02;;;;;;;19.02;12.25;;;;;;;0.07;73.42;99377.44;5034214;28;20024;-47
2021/11/30 03:19:29;;;;;;;18.65;11.65;;;;;;;0.05;73.44;99384.47;5051988;28;20416;-49
2021/11/30 03:21:56;;;;;;;20.77;13.48;;;;;;;0.04;74.17;99382.84;5052092;28;20021;-48
2021/11/30 03:24:22;;;;;;;17.17;10.45;;;;;;;0.12;73.92;99371.91;5052031;28;20025;-47
2021/11/30 03:26:48;;;;;;;15.95;10.68;;;;;;;0.19;73.75;99370.53;5051894;28;20055;-51
2021/11/30 03:29:14;;;;;;;19.73;12.43;;;;;;;0.25;73.44;99375.22;5051934;28;20486;-48
2021/11/30 03:34:10;;;;;;;15.35;11.20;;;;;;;0.07;73.77;99385.19;5051714;28;20049;-49
2021/11/30 03:36:59;;;;;;;20.75;10.85;;;;;;;0.19;73.63;99391.97;5051845;28;20083;-48
2021/11/30 03:39:27;;;;;;;23.45;11.68;;;;;;;0.56;74.19;99396.09;4990250;28;20073;-49
2021/11/30 03:41:55;;;;;;;21.25;13.52;;;;;;;0.90;73.97;99398.63;4990333;28;20034;-48
2021/11/30 03:44:22;;;;;;;12.90;9.95;;;;;;;1.20;72.71;99387.63;4990222;28;20121;-48
2021/11/30 03:46:49;;;;;;;14.95;10.52;;;;;;;1.31;71.65;99391.91;4990319;28;20094;-47
2021/11/30 03:49:16;;;;;;;18.17;11.95;;;;;;;1.32;71.27;99389.22;4990210;28;20132;-48
2021/11/30 03:51:43;;;;;;;14.68;10.98;;;;;;;1.25;70.99;99395.00;4990222;28;20476;-49
2021/11/30 03:54:09;;;;;;;14.48;10.73;;;;;;;1.17;70.77;99399.03;4973857;28;20072;-47
2021/11/30 03:56:36;;;;;;;17.75;11.65;;;;;;;1.08;71.21;99394.56;4990216;28;20042;-47
2021/11/30 03:59:03;;;;;;;13.68;9.85;;;;;;;0.97;71.15;99387.69;4973887;28;20085;-48
2021/11/30 04:01:29;;;;;;;16.83;10.80;;;;;;;0.75;70.90;99388.56;4989785;28;20403;-48
2021/11/30 04:03:56;;;;;;;25.95;11.60;;;;;;;0.66;71.74;99384.09;4990113;28;20042;-50
2021/11/30 04:06:22;;;;;;;15.23;10.65;;;;;;;0.67;71.43;99388.34;4990144;28;20029;-48
2021/11/30 04:08:49;;;;;;;16.67;11.82;;;;;;;0.65;71.86;99384.25;4990157;28;20026;-48
2021/11/30 04:11:16;;;;;;;13.70;8.70;;;;;;;0.69;71.70;99376.13;4990041;28;20514;-48
2021/11/30 04:13:42;;;;;;;14.00;9.88;;;;;;;0.67;71.78;99383.16;4973755;28;20037;-48
2021/11/30 04:16:08;;;;;;;14.23;9.38;;;;;;;0.68;71.62;99391.72;5011013;28;20037;-49
2021/11/30 04:18:34;;;;;;;19.08;9.77;;;;;;;0.83;71.22;99397.47;5051422;28;20067;-49
2021/11/30 04:21:00;;;;;;;15.23;9.10;;;;;;;0.92;71.60;99391.56;5051315;28;20071;-48
2021/11/30 04:23:27;;;;;;;13.93;9.77;;;;;;;1.00;70.90;99389.19;5035527;28;20561;-48
2021/11/30 04:25:53;;;;;;;13.93;10.18;;;;;;;1.03;70.29;99382.97;5055643;28;20124;-51
2021/11/30 04:28:19;;;;;;;19.02;11.02;;;;;;;0.93;70.52;99388.06;5055247;28;20554;-48
2021/11/30 04:30:45;;;;;;;11.82;9.55;;;;;;;0.84;70.20;99392.16;5055257;28;20035;-48
2021/11/30 04:33:10;;;;;;;11.82;9.60;;;;;;;0.65;69.99;99395.38;5054934;28;20033;-48
2021/11/30 04:35:36;;;;;;;18.08;10.93;;;;;;;0.44;70.51;99389.28;5055111;28;20494;-48
2021/11/30 04:38:02;;;;;;;17.60;10.68;;;;;;;0.28;71.21;99392.22;5055116;28;20029;-48
2021/11/30 04:40:27;;;;;;;13.02;8.85;;;;;;;0.19;71.89;99386.00;5054973;28;20546;-48
2021/11/30 04:42:53;;;;;;;12.35;8.50;;;;;;;0.13;71.68;99389.06;5037066;28;20107;-49
2021/11/30 04:45:25;;;;;;;21.67;12.15;;;;;;;0.09;72.62;99398.78;5054906;28;20025;-48
2021/11/30 04:47:55;;;;;;;24.58;16.25;;;;;;;0.13;72.43;99389.88;5054973;28;20475;-47
2021/11/30 04:50:31;;;;;;;17.65;12.13;;;;;;;0.13;72.93;99392.44;5054844;28;20028;-48
2021/11/30 04:52:59;;;;;;;27.05;17.15;;;;;;;0.26;72.32;99386.34;5055183;28;20654;-48
2021/11/30 04:55:28;;;;;;;33.85;24.58;;;;;;;0.22;72.31;99396.09;5054707;28;20017;-48
2021/11/30 04:57:57;;;;;;;19.27;16.48;;;;;;;0.13;72.48;99396.78;5054626;28;20025;-47
2021/11/30 05:00:25;;;;;;;25.45;17.80;;;;;;;-0.07;72.76;99412.00;5036648;28;20513;-48
2021/11/30 05:02:51;;;;;;;54.08;33.08;;;;;;;0.02;74.22;99420.00;5054642;28;20025;-48
2021/11/30 05:05:16;;;;;;;17.35;12.20;;;;;;;0.39;73.83;99420.63;5054604;28;20028;-48
2021/11/30 05:07:43;;;;;;;17.33;12.60;;;;;;;0.62;73.56;99412.88;5054607;28;20021;-49
2021/11/30 05:10:10;;;;;;;24.23;13.30;;;;;;;0.89;72.22;99421.06;5054487;28;20057;-48
2021/11/30 05:12:36;;;;;;;24.33;11.10;;;;;;;0.74;70.33;99432.59;5036529;28;20552;-49
2021/11/30 05:15:04;;;;;;;20.13;12.73;;;;;;;0.42;71.06;99440.22;5054443;28;20033;-48
2021/11/30 05:17:30;;;;;;;19.40;12.65;;;;;;;0.35;71.25;99443.28;5036478;28;20147;-48
2021/11/30 05:19:55;;;;;;;20.08;13.18;;;;;;;0.36;71.66;99444.09;5054527;28;20131;-48
2021/11/30 05:22:21;;;;;;;15.35;10.70;;;;;;;0.41;71.01;99439.41;5054343;28;20510;-48
2021/11/30 05:24:47;;;;;;;18.52;12.75;;;;;;;0.34;70.65;99444.22;5054321;28;20467;-46
2021/11/30 05:27:13;;;;;;;16.60;10.70;;;;;;;0.25;70.51;99444.09;5054144;28;20518;-49
2021/11/30 05:29:39;;;;;;;21.75;12.30;;;;;;;0.27;71.26;99447.38;5054211;28;20104;-48
2021/11/30 05:32:08;;;;;;;18.60;12.20;;;;;;;0.28;70.41;99449.84;5035895;28;20100;-48
2021/11/30 05:34:33;;;;;;;20.15;11.93;;;;;;;0.19;70.36;99456.50;5035233;28;20035;-48
2021/11/30 05:36:59;;;;;;;20.80;11.07;;;;;;;0.07;70.77;99462.59;5053987;28;20029;-48
2021/11/30 05:39:25;;;;;;;17.33;10.88;;;;;;;0.21;71.65;99458.16;5053879;28;20025;-48
2021/11/30 05:41:50;;;;;;;17.83;10.73;;;;;;;0.58;71.38;99456.19;5053880;28;20025;-48
2021/11/30 05:44:16;;;;;;;18.30;12.50;;;;;;;0.95;70.89;99454.19;5053869;28;20017;-48
2021/11/30 05:46:46;;;;;;;22.20;11.90;;;;;;;1.06;68.75;99463.66;5053857;28;20100;-47
2021/11/30 05:49:11;;;;;;;20.05;12.35;;;;;;;1.04;69.32;99468.13;5053780;28;20067;-49
2021/11/30 05:51:37;;;;;;;22.73;12.13;;;;;;;1.12;68.86;99475.31;5053697;28;20032;-48
2021/11/30 05:54:03;;;;;;;26.83;11.32;;;;;;;1.06;68.97;99484.34;5053699;28;20067;-50
2021/11/30 05:56:28;;;;;;;22.73;11.75;;;;;;;1.07;68.29;99485.19;5053890;28;20099;-48
2021/11/30 05:58:54;;;;;;;26.05;13.13;;;;;;;1.15;68.80;99483.63;5053623;28;20024;-50
2021/11/30 06:01:23;;;;;;;26.83;13.43;;;;;;;1.39;68.22;99486.06;5053448;28;20036;-49
2021/11/30 06:06:16;;;;;;;19.25;12.48;;;;;;;1.58;67.40;99484.59;5053730;28;20479;-48
2021/11/30 06:08:41;;;;;;;34.33;14.30;;;;;;;1.70;66.93;99491.38;5053409;28;20525;-48
2021/11/30 06:11:07;;;;;;;22.83;13.27;;;;;;;1.68;66.67;99498.44;5053322;28;20033;-49
2021/11/30 06:13:33;;;;;;;34.92;15.80;;;;;;;1.58;66.40;99498.34;5035417;28;20018;-48
2021/11/30 06:15:59;;;;;;;24.25;13.68;;;;;;;1.48;66.56;99494.03;5053236;28;20048;-49
2021/11/30 06:18:25;;;;;;;25.17;14.13;;;;;;;1.51;66.67;99489.44;5053287;28;20025;-49
2021/11/30 06:20:50;;;;;;;20.55;13.23;;;;;;;1.42;66.20;99461.72;5053103;28;20367;-48
2021/11/30 06:23:16;;;;;;;25.17;14.88;;;;;;;1.22;66.48;99460.72;5051831;28;20087;-49
2021/11/30 06:25:42;;;;;;;29.38;15.02;;;;;;;1.01;66.26;99470.97;5053076;28;20029;-48
2021/11/30 06:28:08;;;;;;;26.98;13.55;;;;;;;0.75;67.02;99484.16;5053018;28;20180;-48
2021/11/30 06:30:34;;;;;;;26.02;15.18;;;;;;;0.49;67.44;99490.47;5035057;28;20025;-48
2021/11/30 06:32:59;;;;;;;25.58;16.42;;;;;;;0.36;68.39;99490.56;5052780;28;20503;-49
2021/11/30 06:35:25;;;;;;;29.73;14.52;;;;;;;0.24;69.12;99499.22;5052914;28;20017;-49
2021/11/30 06:37:52;;;;;;;25.75;16.45;;;;;;;-0.04;69.05;99507.25;5034889;28;20032;-48
2021/11/30 06:40:18;;;;;;;29.15;18.15;;;;;;;-0.51;69.75;99493.44;5052718;28;20498;-48
2021/11/30 06:42:45;;;;;;;55.13;36.05;;;;;;;-0.82;72.48;99497.38;5052729;28;20028;-48
2021/11/30 06:45:11;;;;;;;38.22;21.58;;;;;;;-0.84;73.53;99500.06;5052396;28;20409;-49
2021/11/30 06:47:38;;;;;;;35.55;19.85;;;;;;;-0.59;74.00;99502.66;5052700;28;20437;-48
2021/11/30 06:50:04;;;;;;;41.22;24.70;;;;;;;-0.38;73.70;99502.88;5052597;28;20109;-47
2021/11/30 06:52:30;;;;;;;32.97;18.88;;;;;;;-0.34;73.96;99512.03;5052545;28;20025;-47
2021/11/30 06:54:56;;;;;;;44.90;20.67;;;;;;;-0.35;73.97;99507.84;5052786;28;20104;-47
2021/11/30 06:57:23;;;;;;;43.53;26.02;;;;;;;-0.34;73.67;99514.63;5034614;28;20115;-46
2021/11/30 06:59:50;;;;;;;37.45;21.23;;;;;;;-0.23;73.28;99514.69;5052397;28;20017;-48
2021/11/30 07:02:16;;;;;;;37.78;23.52;;;;;;;-0.08;73.31;99517.91;5034480;28;20047;-47
2021/11/30 07:04:44;;;;;;;49.22;25.98;;;;;;;0.00;73.02;99525.94;5034516;28;20495;-47
2021/11/30 07:09:49;;;;;;;35.90;17.95;;;;;;;0.84;73.46;99538.63;5052260;28;20021;-48
2021/11/30 07:12:45;;;;;;;36.85;20.98;;;;;;;1.13;71.47;99546.75;5052241;28;20031;-49
2021/11/30 07:15:11;;;;;;;52.60;34.22;;;;;;;1.09;70.86;99555.69;5051904;28;20025;-48
2021/11/30 07:17:38;;;;;;;36.80;23.23;;;;;;;0.89;70.68;99547.69;5034196;28;20112;-47
2021/11/30 07:20:05;;;;;;;24.63;17.27;;;;;;;1.13;70.47;99555.31;5051980;28;20576;-48
2021/11/30 07:22:31;;;;;;;62.88;48.17;;;;;;;1.27;70.08;99563.75;5052066;28;20033;-49
2021/11/30 07:24:57;;;;;;;41.75;29.00;;;;;;;1.59;70.02;99556.09;5052057;28;20048;-49
2021/11/30 07:27:23;;;;;;;20.05;14.40;;;;;;;2.37;68.99;99548.94;5034163;28;20028;-49
2021/11/30 07:29:49;;;;;;;25.42;13.60;;;;;;;2.95;67.40;99554.44;5051936;28;20037;-48
2021/11/30 07:32:16;;;;;;;20.80;13.38;;;;;;;3.32;66.17;99560.84;5051683;28;20047;-48
2021/11/30 07:34:42;;;;;;;28.77;15.32;;;;;;;3.55;65.35;99556.28;5034072;28;20044;-48
2021/11/30 07:37:08;;;;;;;27.00;12.13;;;;;;;3.49;64.70;99557.63;5051791;28;20021;-48
2021/11/30 07:39:34;;;;;;;29.05;16.63;;;;;;;3.38;63.22;99571.56;5051750;28;20040;-48
2021/11/30 07:42:01;;;;;;;22.70;13.93;;;;;;;3.31;65.15;99567.81;5051798;28;20036;-48
2021/11/30 07:44:28;;;;;;;27.25;13.90;;;;;;;3.68;64.79;99569.00;5051790;28;20391;-49
2021/11/30 07:46:54;;;;;;;21.65;14.27;;;;;;;3.74;62.97;99571.06;5051788;28;20491;-49
2021/11/30 07:49:21;;;;;;;31.88;14.50;;;;;;;3.55;62.78;99575.28;5051782;28;20025;-49
2021/11/30 07:51:47;;;;;;;41.08;23.30;;;;;;;3.63;63.17;99573.78;5033790;28;20029;-48
2021/11/30 07:54:14;;;;;;;27.23;14.82;;;;;;;3.83;61.65;99577.25;5051632;28;20017;-47
2021/11/30 07:56:40;;;;;;;21.30;13.85;;;;;;;3.78;61.18;99564.66;5051426;28;20035;-48
2021/11/30 07:59:07;;;;;;;28.83;15.27;;;;;;;3.67;60.58;99557.81;5033219;28;20469;-48
2021/11/30 08:01:33;;;;;;;29.85;14.77;;;;;;;3.62;60.33;99562.56;5051478;28;20039;-49
2021/11/30 08:03:59;;;;;;;27.25;16.60;;;;;;;3.51;59.61;99560.91;5051511;28;20021;-48
2021/11/30 08:06:25;;;;;;;25.83;17.58;;;;;;;3.31;59.84;99569.59;5051567;28;20053;-49
2021/11/30 08:08:53;;;;;;;29.90;18.20;;;;;;;3.27;60.76;99569.03;5051511;28;20521;-49
2021/11/30 08:11:18;;;;;;;38.83;20.23;;;;;;;3.60;61.45;99561.88;5051472;28;20040;-48
2021/11/30 08:13:44;;;;;;;29.38;18.90;;;;;;;3.94;61.47;99572.75;5033611;28;20025;-48
2021/11/30 08:16:10;;;;;;;30.48;18.92;;;;;;;4.31;61.54;99566.84;5033538;28;20042;-48
2021/11/30 08:18:36;;;;;;;30.25;16.65;;;;;;;5.39;61.14;99568.19;5033518;28;20021;-48
2021/11/30 08:21:02;;;;;;;46.67;36.97;;;;;;;6.31;55.36;99566.31;5051359;28;20055;-48
2021/11/30 08:23:28;;;;;;;51.20;38.65;;;;;;;6.17;52.62;99572.06;5051397;28;20056;-49
2021/11/30 08:25:54;;;;;;;54.67;43.05;;;;;;;5.58;52.50;99569.03;5033382;28;20024;-49
2021/11/30 08:28:20;;;;;;;30.92;19.35;;;;;;;5.04;53.77;99575.88;5051375;28;20394;-48
2021/11/30 08:30:47;;;;;;;24.30;17.75;;;;;;;4.74;54.84;99582.94;5051271;28;20021;-49
2021/11/30 08:33:13;;;;;;;24.13;16.40;;;;;;;5.05;55.89;99588.75;5050981;28;20049;-48
2021/11/30 08:35:39;;;;;;;26.15;16.02;;;;;;;5.94;55.12;99575.09;5051171;28;20048;-49
2021/11/30 08:38:05;;;;;;;27.73;17.65;;;;;;;5.97;52.04;99587.03;5051241;28;20029;-48
2021/11/30 08:40:32;;;;;;;23.75;16.45;;;;;;;6.24;52.85;99588.75;5051109;28;20021;-49
2021/11/30 08:42:58;;;;;;;23.75;17.17;;;;;;;6.49;52.46;99587.16;5051121;28;20064;-49
2021/11/30 08:45:23;;;;;;;25.33;16.27;;;;;;;7.12;51.71;99583.50;5051221;28;20106;-48
2021/11/30 08:47:49;;;;;;;27.17;17.85;;;;;;;7.71;50.50;99582.72;5051152;28;20028;-49
2021/11/30 08:50:17;;;;;;;26.70;19.38;;;;;;;7.61;48.73;99588.09;5051132;28;20557;-49
2021/11/30 08:52:44;;;;;;;27.70;19.42;;;;;;;7.24;48.02;99581.41;5051157;28;20159;-49
2021/11/30 08:55:11;;;;;;;33.05;18.67;;;;;;;7.32;49.80;99585.84;5051104;28;20021;-50
2021/11/30 08:57:38;;;;;;;29.40;18.40;;;;;;;7.98;48.99;99586.84;5051104;28;20025;-49
2021/11/30 09:00:08;;;;;;;29.17;19.63;;;;;;;8.67;47.48;99584.78;5033098;28;20032;-49
2021/11/30 09:02:36;;;;;;;28.20;18.67;;;;;;;9.09;46.86;99593.34;5051093;28;20033;-49
2021/11/30 09:05:05;;;;;;;25.83;16.85;;;;;;;9.36;45.83;99590.31;5050968;28;20219;-49
2021/11/30 09:07:31;;;;;;;36.03;18.10;;;;;;;9.81;46.05;99580.09;5033062;28;20119;-49
2021/11/30 09:09:57;;;;;;;26.17;17.83;;;;;;;10.39;44.29;99583.16;5053644;28;20465;-49
2021/11/30 09:12:24;;;;;;;25.20;17.38;;;;;;;10.13;43.21;99584.31;5054510;28;20103;-49
2021/11/30 09:14:50;;;;;;;27.67;18.67;;;;;;;9.93;47.14;99575.28;5054421;28;20414;-50
2021/11/30 09:17:17;;;;;;;24.23;17.13;;;;;;;10.64;47.42;99569.81;5036540;28;20025;-50
2021/11/30 09:19:43;;;;;;;28.92;18.83;;;;;;;10.96;46.71;99564.22;5054313;28;20052;-50
2021/11/30 09:22:09;;;;;;;31.30;18.90;;;;;;;11.29;46.23;99560.41;5054254;28;20048;-50
2021/11/30 09:24:35;;;;;;;27.33;19.10;;;;;;;10.97;46.03;99571.13;5054302;28;20018;-49
2021/11/30 09:27:01;;;;;;;1169.03;667.65;;;;;;;11.56;45.75;99575.50;5054208;28;20024;-50
2021/11/30 09:29:27;;;;;;;1596.60;823.15;;;;;;;12.15;44.58;99568.44;5036256;28;20521;-50
2021/11/30 09:31:54;;;;;;;569.55;391.20;;;;;;;12.77;43.93;99574.81;5036149;28;20055;-51
2021/11/30 09:34:20;;;;;;;62.60;44.58;;;;;;;12.95;40.20;99580.41;5017615;28;20050;-50
2021/11/30 09:36:47;;;;;;;61.83;44.78;;;;;;;12.93;39.45;99579.78;5016348;28;20021;-50
2021/11/30 09:39:14;;;;;;;57.20;41.10;;;;;;;12.09;39.12;99583.19;5034067;28;20044;-50
2021/11/30 09:41:41;;;;;;;41.25;26.98;;;;;;;12.31;40.81;99580.53;5033946;28;20021;-50
2021/11/30 09:44:07;;;;;;;32.15;25.00;;;;;;;12.71;39.69;99588.75;5034046;28;20052;-50
2021/11/30 09:46:33;;;;;;;27.13;20.85;;;;;;;12.21;38.70;99591.38;5033915;28;20021;-51
2021/11/30 09:48:59;;;;;;;40.55;25.80;;;;;;;11.45;39.50;99580.41;5033881;28;20025;-50
2021/11/30 09:51:25;;;;;;;21.23;15.68;;;;;;;11.20;40.79;99592.03;5033876;28;20029;-51
2021/11/30 09:53:50;;;;;;;23.25;16.58;;;;;;;11.16;40.09;99597.84;5033817;28;20149;-50
2021/11/30 09:56:17;;;;;;;22.52;15.85;;;;;;;10.95;40.43;99586.25;5033773;28;20068;-50
2021/11/30 09:58:43;;;;;;;23.02;14.43;;;;;;;11.47;40.64;99591.56;5015965;28;20542;-49
2021/11/30 10:01:11;;;;;;;23.65;14.27;;;;;;;11.21;40.38;99587.63;5033548;28;20160;-49
2021/11/30 10:03:38;;;;;;;21.48;15.82;;;;;;;11.54;40.42;99589.84;5033631;28;20026;-50
2021/11/30 10:06:04;;;;;;;18.42;13.77;;;;;;;11.13;39.76;99596.41;5033528;28;20427;-50
2021/11/30 10:08:36;;;;;;;14.80;11.45;;;;;;;10.17;40.96;99592.66;5033584;28;20025;-50
2021/11/30 10:11:04;;;;;;;16.50;12.25;;;;;;;10.01;41.76;99577.84;5033397;28;20080;-49
2021/11/30 10:13:30;;;;;;;17.38;12.30;;;;;;;10.90;41.51;99579.91;5015619;28;20112;-50
2021/11/30 10:16:03;;;;;;;12.48;10.57;;;;;;;12.31;40.03;99575.28;5015531;28;20044;-50
2021/11/30 10:18:33;;;;;;;11.45;9.18;;;;;;;13.56;37.06;99563.91;5033356;28;20040;-50
2021/11/30 10:21:08;;;;;;;8.40;6.75;;;;;;;13.51;34.96;99568.94;5032495;28;20072;-50
2021/11/30 10:23:55;;;;;;;12.20;7.95;;;;;;;12.59;35.43;99567.41;5033277;28;20025;-48
2021/11/30 10:26:27;;;;;;;11.07;7.40;;;;;;;11.70;37.39;99568.59;5033212;28;20391;-50
2021/11/30 10:29:05;;;;;;;14.23;7.28;;;;;;;11.27;38.00;99565.03;5015357;28;20426;-50
2021/11/30 10:31:44;;;;;;;11.10;7.28;;;;;;;10.81;37.99;99565.25;5033092;28;20075;-50
2021/11/30 10:34:22;;;;;;;17.38;7.10;;;;;;;10.41;39.14;99570.69;5050072;28;20076;-49
2021/11/30 10:36:49;;;;;;;13.07;7.60;;;;;;;10.31;39.48;99572.75;5052970;28;20040;-50
2021/11/30 10:39:18;;;;;;;13.85;7.55;;;;;;;10.24;40.37;99566.53;5052871;28;20028;-50
2021/11/30 10:41:46;;;;;;;13.70;7.93;;;;;;;9.95;39.97;99560.19;5034787;28;20025;-50
2021/11/30 10:44:12;;;;;;;12.48;7.93;;;;;;;9.32;42.26;99562.81;5034909;28;20025;-49
2021/11/30 10:46:38;;;;;;;8.57;6.75;;;;;;;8.90;41.80;99561.34;5052763;28;20033;-50
2021/11/30 10:49:05;;;;;;;7.25;6.47;;;;;;;8.74;42.92;99559.56;5052730;28;20027;-49
2021/11/30 10:51:53;;;;;;;14.65;8.25;;;;;;;8.77;43.15;99558.41;5052605;28;20167;-49
2021/11/30 10:54:21;;;;;;;12.82;7.53;;;;;;;8.93;43.00;99553.16;5052652;28;20025;-49
2021/11/30 10:57:00;;;;;;;15.23;8.27;;;;;;;9.60;42.85;99565.81;5034627;28;20516;-49
2021/11/30 10:59:30;;;;;;;7.65;5.57;;;;;;;9.94;42.13;99556.75;5052550;28;20100;-50
2021/11/30 11:01:56;;;;;;;7.68;5.65;;;;;;;10.04;42.02;99551.28;5034469;28;20036;-50
2021/11/30 11:04:35;;;;;;;10.68;6.90;;;;;;;10.75;41.28;99551.03;5034447;28;20375;-50
2021/11/30 11:07:11;;;;;;;8.40;6.15;;;;;;;11.33;38.93;99549.38;5034449;28;20483;-50
2021/11/30 11:09:39;;;;;;;9.70;5.93;;;;;;;11.52;39.34;99545.31;5052303;28;20071;-50
2021/11/30 11:12:08;;;;;;;10.05;7.22;;;;;;;11.66;38.41;99548.13;5052264;28;20024;-49
2021/11/30 11:14:48;;;;;;;17.58;7.30;;;;;;;11.39;39.68;99556.50;5052244;28;20024;-50
2021/11/30 11:17:32;;;;;;;16.23;8.90;;;;;;;12.37;37.58;99554.28;5034304;28;20029;-51
2021/11/30 11:19:59;;;;;;;8.52;6.05;;;;;;;12.42;37.03;99550.28;5034182;28;20057;-50
2021/11/30 11:22:27;;;;;;;7.70;5.80;;;;;;;12.11;37.11;99554.03;5034210;28;20040;-50
2021/11/30 11:25:00;;;;;;;9.85;5.70;;;;;;;11.99;37.52;99551.94;5052040;28;20066;-49
2021/11/30 11:27:40;;;;;;;7.18;5.45;;;;;;;11.64;37.70;99543.03;5034198;28;20100;-48
2021/11/30 11:30:09;;;;;;;11.20;6.07;;;;;;;10.91;38.64;99536.91;5052024;28;20062;-50
2021/11/30 11:32:36;;;;;;;16.50;6.85;;;;;;;10.50;39.62;99537.31;5050755;28;20047;-49
2021/11/30 11:35:04;;;;;;;10.88;6.25;;;;;;;10.41;40.08;99528.69;5051966;28;20033;-50
2021/11/30 11:37:30;;;;;;;7.75;5.45;;;;;;;10.10;40.15;99540.09;5033870;28;20109;-50
2021/11/30 11:39:56;;;;;;;13.35;6.63;;;;;;;10.00;40.02;99534.28;5051769;28;20020;-50
2021/11/30 11:42:23;;;;;;;6.93;5.57;;;;;;;9.85;40.36;99536.81;5051744;28;20028;-50
2021/11/30 11:44:52;;;;;;;10.82;5.88;;;;;;;9.67;40.35;99536.28;5051763;28;20534;-49